sensor_id;sensor_type;location;lat;lon;timestamp;temperature;humidity
13409;DHT22;6775;49.574;11.170;2023-12-07T00:00:44;2.30;99.90
13409;DHT22;6775;49.574;11.170;2023-12-07T00:03:12;2.30;99.90
13409;DHT22;6775;49.574;11.170;2023-12-07T00:05:43;2.30;99.90
13409;DHT22;6775;49.574;11.170;2023-12-07T00:08:12;2.30;99.90
13409;DHT22;6775;49.574;11.170;2023-12-07T00:10:40;2.30;99.90
13409;DHT22;6775;49.574;11.170;2023-12-07T00:13:08;2.30;99.90
13409;DHT22;6775;49.574;11.170;2023-12-07T00:15:37;2.50;99.90
13409;DHT22;6775;49.574;11.170;2023-12-07T00:18:05;2.40;99.90
13409;DHT22;6775;49.574;11.170;2023-12-07T00:20:33;2.40;99.90
13409;DHT22;6775;49.574;11.170;2023-12-07T00:23:03;2.40;99.90
13409;DHT22;6775;49.574;11.170;2023-12-07T00:25:32;2.40;99.90
13409;DHT22;6775;49.574;11.170;2023-12-07T00:28:01;2.40;99.90
13409;DHT22;6775;49.574;11.170;2023-12-07T00:30:30;2.40;99.90
13409;DHT22;6775;49.574;11.170;2023-12-07T00:32:58;2.40;99.90
13409;DHT22;6775;49.574;11.170;2023-12-07T00:35:27;2.40;99.90
13409;DHT22;6775;49.574;11.170;2023-12-07T00:37:56;2.40;99.90
13409;DHT22;6775;49.574;11.170;2023-12-07T00:40:26;2.40;99.90
13409;DHT22;6775;49.574;11.170;2023-12-07T00:42:54;2.40;99.90
13409;DHT22;6775;49.574;11.170;2023-12-07T00:45:22;2.50;99.90
13409;DHT22;6775;49.574;11.170;2023-12-07T00:47:51;2.40;99.90
13409;DHT22;6775;49.574;11.170;2023-12-07T00:50:19;2.40;99.90
13409;DHT22;6775;49.574;11.170;2023-12-07T00:52:47;2.40;99.90
13409;DHT22;6775;49.574;11.170;2023-12-07T00:55:16;2.40;99.90
13409;DHT22;6775;49.574;11.170;2023-12-07T00:57:45;2.40;99.90
13409;DHT22;6775;49.574;11.170;2023-12-07T01:00:14;2.40;99.90
13409;DHT22;6775;49.574;11.170;2023-12-07T01:02:43;2.40;99.90
13409;DHT22;6775;49.574;11.170;2023-12-07T01:05:11;2.50;99.90
13409;DHT22;6775;49.574;11.170;2023-12-07T01:07:40;2.50;99.90
13409;DHT22;6775;49.574;11.170;2023-12-07T01:10:08;2.50;99.90
13409;DHT22;6775;49.574;11.170;2023-12-07T01:12:37;2.50;99.90
13409;DHT22;6775;49.574;11.170;2023-12-07T01:15:07;2.40;99.90
13409;DHT22;6775;49.574;11.170;2023-12-07T01:17:36;2.50;99.90
13409;DHT22;6775;49.574;11.170;2023-12-07T01:20:05;2.50;99.90
13409;DHT22;6775;49.574;11.170;2023-12-07T01:22:39;2.50;99.90
13409;DHT22;6775;49.574;11.170;2023-12-07T01:25:08;2.60;99.90
13409;DHT22;6775;49.574;11.170;2023-12-07T01:27:37;2.80;99.90
13409;DHT22;6775;49.574;11.170;2023-12-07T01:30:08;2.50;99.90
13409;DHT22;6775;49.574;11.170;2023-12-07T01:32:37;2.50;99.90
13409;DHT22;6775;49.574;11.170;2023-12-07T01:35:06;2.50;99.90
13409;DHT22;6775;49.574;11.170;2023-12-07T01:37:35;2.50;99.90
13409;DHT22;6775;49.574;11.170;2023-12-07T01:40:05;2.50;99.90
13409;DHT22;6775;49.574;11.170;2023-12-07T01:42:37;2.50;99.90
13409;DHT22;6775;49.574;11.170;2023-12-07T01:45:07;2.50;99.90
13409;DHT22;6775;49.574;11.170;2023-12-07T01:47:36;2.50;99.90
13409;DHT22;6775;49.574;11.170;2023-12-07T01:50:06;2.50;99.90
13409;DHT22;6775;49.574;11.170;2023-12-07T01:52:39;2.50;99.90
13409;DHT22;6775;49.574;11.170;2023-12-07T01:55:13;2.50;99.90
13409;DHT22;6775;49.574;11.170;2023-12-07T01:57:46;2.50;99.90
13409;DHT22;6775;49.574;11.170;2023-12-07T02:00:17;2.50;99.90
13409;DHT22;6775;49.574;11.170;2023-12-07T02:02:47;2.50;99.90
13409;DHT22;6775;49.574;11.170;2023-12-07T02:05:15;2.50;99.90
13409;DHT22;6775;49.574;11.170;2023-12-07T02:07:44;2.50;99.90
13409;DHT22;6775;49.574;11.170;2023-12-07T02:10:13;2.50;99.90
13409;DHT22;6775;49.574;11.170;2023-12-07T02:12:42;2.50;99.90
13409;DHT22;6775;49.574;11.170;2023-12-07T02:15:10;2.50;99.90
13409;DHT22;6775;49.574;11.170;2023-12-07T02:17:49;2.50;99.90
13409;DHT22;6775;49.574;11.170;2023-12-07T02:20:28;2.50;99.90
13409;DHT22;6775;49.574;11.170;2023-12-07T02:23:01;2.50;99.90
13409;DHT22;6775;49.574;11.170;2023-12-07T02:25:35;2.50;99.90
13409;DHT22;6775;49.574;11.170;2023-12-07T02:28:06;2.60;99.90
13409;DHT22;6775;49.574;11.170;2023-12-07T02:30:35;2.50;99.90
13409;DHT22;6775;49.574;11.170;2023-12-07T02:33:03;2.50;99.90
13409;DHT22;6775;49.574;11.170;2023-12-07T02:35:33;2.50;99.90
13409;DHT22;6775;49.574;11.170;2023-12-07T02:38:02;2.40;99.90
13409;DHT22;6775;49.574;11.170;2023-12-07T02:40:31;2.40;99.90
13409;DHT22;6775;49.574;11.170;2023-12-07T02:43:00;2.30;99.90
13409;DHT22;6775;49.574;11.170;2023-12-07T02:45:31;2.20;99.90
13409;DHT22;6775;49.574;11.170;2023-12-07T02:48:00;2.20;99.90
13409;DHT22;6775;49.574;11.170;2023-12-07T02:50:29;2.10;99.90
13409;DHT22;6775;49.574;11.170;2023-12-07T02:52:57;2.10;99.90
13409;DHT22;6775;49.574;11.170;2023-12-07T02:55:25;2.10;99.90
13409;DHT22;6775;49.574;11.170;2023-12-07T02:57:53;2.00;99.90
13409;DHT22;6775;49.574;11.170;2023-12-07T03:00:21;2.10;99.90
13409;DHT22;6775;49.574;11.170;2023-12-07T03:02:51;2.00;99.90
13409;DHT22;6775;49.574;11.170;2023-12-07T03:05:19;2.10;99.90
13409;DHT22;6775;49.574;11.170;2023-12-07T03:07:49;2.00;99.90
13409;DHT22;6775;49.574;11.170;2023-12-07T03:10:17;2.00;99.90
13409;DHT22;6775;49.574;11.170;2023-12-07T03:12:46;2.00;99.90
13409;DHT22;6775;49.574;11.170;2023-12-07T03:15:14;2.00;99.90
13409;DHT22;6775;49.574;11.170;2023-12-07T03:17:42;2.00;99.90
13409;DHT22;6775;49.574;11.170;2023-12-07T03:20:12;2.00;99.90
13409;DHT22;6775;49.574;11.170;2023-12-07T03:22:41;2.00;99.90
13409;DHT22;6775;49.574;11.170;2023-12-07T03:25:10;2.00;99.90
13409;DHT22;6775;49.574;11.170;2023-12-07T03:27:38;2.00;99.90
13409;DHT22;6775;49.574;11.170;2023-12-07T03:30:07;2.00;99.90
13409;DHT22;6775;49.574;11.170;2023-12-07T03:32:36;2.00;99.90
13409;DHT22;6775;49.574;11.170;2023-12-07T03:35:05;2.00;99.90
13409;DHT22;6775;49.574;11.170;2023-12-07T03:37:35;2.00;99.90
13409;DHT22;6775;49.574;11.170;2023-12-07T03:40:04;2.00;99.90
13409;DHT22;6775;49.574;11.170;2023-12-07T03:42:33;2.00;99.90
13409;DHT22;6775;49.574;11.170;2023-12-07T03:45:21;1.90;99.90
13409;DHT22;6775;49.574;11.170;2023-12-07T03:47:50;1.90;99.90
13409;DHT22;6775;49.574;11.170;2023-12-07T03:50:18;2.00;99.90
13409;DHT22;6775;49.574;11.170;2023-12-07T03:52:47;1.90;99.90
13409;DHT22;6775;49.574;11.170;2023-12-07T03:55:15;1.90;99.90
13409;DHT22;6775;49.574;11.170;2023-12-07T03:57:44;1.90;99.90
13409;DHT22;6775;49.574;11.170;2023-12-07T04:00:13;1.80;99.90
13409;DHT22;6775;49.574;11.170;2023-12-07T04:02:41;1.80;99.90
13409;DHT22;6775;49.574;11.170;2023-12-07T04:05:09;1.80;99.90
13409;DHT22;6775;49.574;11.170;2023-12-07T04:07:39;1.70;99.90
13409;DHT22;6775;49.574;11.170;2023-12-07T04:10:11;1.70;99.90
13409;DHT22;6775;49.574;11.170;2023-12-07T04:12:39;1.70;99.90
13409;DHT22;6775;49.574;11.170;2023-12-07T04:15:08;1.70;99.90
13409;DHT22;6775;49.574;11.170;2023-12-07T04:17:36;1.70;99.90
13409;DHT22;6775;49.574;11.170;2023-12-07T04:20:05;1.70;99.90
13409;DHT22;6775;49.574;11.170;2023-12-07T04:22:36;1.70;99.90
13409;DHT22;6775;49.574;11.170;2023-12-07T04:25:05;1.70;99.90
13409;DHT22;6775;49.574;11.170;2023-12-07T04:27:35;1.70;99.90
13409;DHT22;6775;49.574;11.170;2023-12-07T04:30:05;1.80;99.90
13409;DHT22;6775;49.574;11.170;2023-12-07T04:32:34;1.80;99.90
13409;DHT22;6775;49.574;11.170;2023-12-07T04:35:02;1.80;99.90
13409;DHT22;6775;49.574;11.170;2023-12-07T04:37:31;1.80;99.90
13409;DHT22;6775;49.574;11.170;2023-12-07T04:39:59;1.80;99.90
13409;DHT22;6775;49.574;11.170;2023-12-07T04:42:27;1.80;99.90
13409;DHT22;6775;49.574;11.170;2023-12-07T04:44:57;1.90;99.90
13409;DHT22;6775;49.574;11.170;2023-12-07T04:47:26;1.90;99.90
13409;DHT22;6775;49.574;11.170;2023-12-07T04:49:54;1.90;99.90
13409;DHT22;6775;49.574;11.170;2023-12-07T04:52:23;1.90;99.90
13409;DHT22;6775;49.574;11.170;2023-12-07T04:54:51;1.90;99.90
13409;DHT22;6775;49.574;11.170;2023-12-07T04:57:19;1.90;99.90
13409;DHT22;6775;49.574;11.170;2023-12-07T04:59:47;1.90;99.90
13409;DHT22;6775;49.574;11.170;2023-12-07T05:02:17;1.80;99.90
13409;DHT22;6775;49.574;11.170;2023-12-07T05:04:45;1.90;99.90
13409;DHT22;6775;49.574;11.170;2023-12-07T05:07:14;1.90;99.90
13409;DHT22;6775;49.574;11.170;2023-12-07T05:09:42;1.80;99.90
13409;DHT22;6775;49.574;11.170;2023-12-07T05:12:10;1.80;99.90
13409;DHT22;6775;49.574;11.170;2023-12-07T05:14:39;1.80;99.90
13409;DHT22;6775;49.574;11.170;2023-12-07T05:17:07;1.80;99.90
13409;DHT22;6775;49.574;11.170;2023-12-07T05:19:36;1.80;99.90
13409;DHT22;6775;49.574;11.170;2023-12-07T05:22:04;1.80;99.90
13409;DHT22;6775;49.574;11.170;2023-12-07T05:24:33;1.70;99.90
13409;DHT22;6775;49.574;11.170;2023-12-07T05:27:03;1.70;99.90
13409;DHT22;6775;49.574;11.170;2023-12-07T05:29:32;1.70;99.90
13409;DHT22;6775;49.574;11.170;2023-12-07T05:32:00;1.60;99.90
13409;DHT22;6775;49.574;11.170;2023-12-07T05:34:28;1.70;99.90
13409;DHT22;6775;49.574;11.170;2023-12-07T05:36:58;1.70;99.90
13409;DHT22;6775;49.574;11.170;2023-12-07T05:39:26;1.70;99.90
13409;DHT22;6775;49.574;11.170;2023-12-07T05:41:54;1.80;99.90
13409;DHT22;6775;49.574;11.170;2023-12-07T05:44:22;1.80;99.90
13409;DHT22;6775;49.574;11.170;2023-12-07T05:46:50;1.70;99.90
13409;DHT22;6775;49.574;11.170;2023-12-07T05:49:20;1.60;99.90
13409;DHT22;6775;49.574;11.170;2023-12-07T05:51:49;1.60;99.90
13409;DHT22;6775;49.574;11.170;2023-12-07T05:54:18;1.60;99.90
13409;DHT22;6775;49.574;11.170;2023-12-07T05:56:47;1.50;99.90
13409;DHT22;6775;49.574;11.170;2023-12-07T05:59:15;1.50;99.90
13409;DHT22;6775;49.574;11.170;2023-12-07T06:01:43;1.60;99.90
13409;DHT22;6775;49.574;11.170;2023-12-07T06:04:12;1.60;99.90
13409;DHT22;6775;49.574;11.170;2023-12-07T06:06:40;1.60;99.90
13409;DHT22;6775;49.574;11.170;2023-12-07T06:09:08;1.60;99.90
13409;DHT22;6775;49.574;11.170;2023-12-07T06:11:38;1.70;99.90
13409;DHT22;6775;49.574;11.170;2023-12-07T06:14:07;1.70;99.90
13409;DHT22;6775;49.574;11.170;2023-12-07T06:16:35;1.70;99.90
13409;DHT22;6775;49.574;11.170;2023-12-07T06:19:03;1.80;99.90
13409;DHT22;6775;49.574;11.170;2023-12-07T06:21:32;1.90;99.90
13409;DHT22;6775;49.574;11.170;2023-12-07T06:24:00;1.90;99.90
13409;DHT22;6775;49.574;11.170;2023-12-07T06:26:28;2.00;99.90
13409;DHT22;6775;49.574;11.170;2023-12-07T06:28:58;2.00;99.90
13409;DHT22;6775;49.574;11.170;2023-12-07T06:31:26;2.00;99.90
13409;DHT22;6775;49.574;11.170;2023-12-07T06:33:54;2.10;99.90
13409;DHT22;6775;49.574;11.170;2023-12-07T06:36:23;2.10;99.90
13409;DHT22;6775;49.574;11.170;2023-12-07T06:38:53;2.20;99.90
13409;DHT22;6775;49.574;11.170;2023-12-07T06:41:21;2.20;99.90
13409;DHT22;6775;49.574;11.170;2023-12-07T06:43:50;2.20;99.90
13409;DHT22;6775;49.574;11.170;2023-12-07T06:46:19;2.30;99.90
13409;DHT22;6775;49.574;11.170;2023-12-07T06:48:48;2.30;99.90
13409;DHT22;6775;49.574;11.170;2023-12-07T06:51:16;2.30;99.90
13409;DHT22;6775;49.574;11.170;2023-12-07T06:53:45;2.40;99.90
13409;DHT22;6775;49.574;11.170;2023-12-07T06:56:13;2.40;99.90
13409;DHT22;6775;49.574;11.170;2023-12-07T06:58:42;2.40;99.90
13409;DHT22;6775;49.574;11.170;2023-12-07T07:01:10;2.40;99.90
13409;DHT22;6775;49.574;11.170;2023-12-07T07:03:40;2.40;99.90
13409;DHT22;6775;49.574;11.170;2023-12-07T07:06:09;2.40;99.90
13409;DHT22;6775;49.574;11.170;2023-12-07T07:08:37;2.40;99.90
13409;DHT22;6775;49.574;11.170;2023-12-07T07:11:11;2.40;99.90
13409;DHT22;6775;49.574;11.170;2023-12-07T07:13:41;2.40;99.90
13409;DHT22;6775;49.574;11.170;2023-12-07T07:16:09;2.50;99.90
13409;DHT22;6775;49.574;11.170;2023-12-07T07:18:38;2.50;99.90
13409;DHT22;6775;49.574;11.170;2023-12-07T07:21:07;2.50;99.90
13409;DHT22;6775;49.574;11.170;2023-12-07T07:23:36;2.50;99.90
13409;DHT22;6775;49.574;11.170;2023-12-07T07:26:05;2.60;99.90
13409;DHT22;6775;49.574;11.170;2023-12-07T07:28:33;2.50;99.90
13409;DHT22;6775;49.574;11.170;2023-12-07T07:31:01;2.50;99.90
13409;DHT22;6775;49.574;11.170;2023-12-07T07:33:30;2.50;99.90
13409;DHT22;6775;49.574;11.170;2023-12-07T07:35:59;2.50;99.90
13409;DHT22;6775;49.574;11.170;2023-12-07T07:38:29;2.50;99.90
13409;DHT22;6775;49.574;11.170;2023-12-07T07:40:57;2.50;99.90
13409;DHT22;6775;49.574;11.170;2023-12-07T07:43:25;2.50;99.90
13409;DHT22;6775;49.574;11.170;2023-12-07T07:45:53;2.60;99.90
13409;DHT22;6775;49.574;11.170;2023-12-07T07:48:21;2.60;99.90
13409;DHT22;6775;49.574;11.170;2023-12-07T07:50:50;2.70;99.90
13409;DHT22;6775;49.574;11.170;2023-12-07T07:53:18;2.70;99.90
13409;DHT22;6775;49.574;11.170;2023-12-07T07:55:47;2.60;99.90
13409;DHT22;6775;49.574;11.170;2023-12-07T07:58:16;2.60;99.90
13409;DHT22;6775;49.574;11.170;2023-12-07T08:00:44;2.60;99.90
13409;DHT22;6775;49.574;11.170;2023-12-07T08:03:13;2.70;99.90
13409;DHT22;6775;49.574;11.170;2023-12-07T08:05:41;2.70;99.90
13409;DHT22;6775;49.574;11.170;2023-12-07T08:08:10;2.60;99.90
13409;DHT22;6775;49.574;11.170;2023-12-07T08:10:38;2.70;99.90
13409;DHT22;6775;49.574;11.170;2023-12-07T08:13:23;2.70;99.90
13409;DHT22;6775;49.574;11.170;2023-12-07T08:15:51;2.70;99.90
13409;DHT22;6775;49.574;11.170;2023-12-07T08:18:24;2.70;99.90
13409;DHT22;6775;49.574;11.170;2023-12-07T08:20:52;2.70;99.90
13409;DHT22;6775;49.574;11.170;2023-12-07T08:23:21;2.60;99.90
13409;DHT22;6775;49.574;11.170;2023-12-07T08:25:49;2.60;99.90
13409;DHT22;6775;49.574;11.170;2023-12-07T08:28:17;2.80;99.90
13409;DHT22;6775;49.574;11.170;2023-12-07T08:30:47;2.90;99.90
13409;DHT22;6775;49.574;11.170;2023-12-07T08:33:16;2.90;99.90
13409;DHT22;6775;49.574;11.170;2023-12-07T08:35:44;2.90;99.90
13409;DHT22;6775;49.574;11.170;2023-12-07T08:38:12;2.90;99.90
13409;DHT22;6775;49.574;11.170;2023-12-07T08:40:40;2.90;99.90
13409;DHT22;6775;49.574;11.170;2023-12-07T08:43:09;2.80;99.90
13409;DHT22;6775;49.574;11.170;2023-12-07T08:45:37;2.80;99.90
13409;DHT22;6775;49.574;11.170;2023-12-07T08:48:07;2.80;99.90
13409;DHT22;6775;49.574;11.170;2023-12-07T08:50:35;2.80;99.90
13409;DHT22;6775;49.574;11.170;2023-12-07T08:53:03;2.90;99.90
13409;DHT22;6775;49.574;11.170;2023-12-07T08:55:32;2.80;99.90
13409;DHT22;6775;49.574;11.170;2023-12-07T08:58:00;2.90;99.90
13409;DHT22;6775;49.574;11.170;2023-12-07T09:00:31;3.00;99.90
13409;DHT22;6775;49.574;11.170;2023-12-07T09:03:00;3.00;99.90
13409;DHT22;6775;49.574;11.170;2023-12-07T09:05:30;3.10;99.90
13409;DHT22;6775;49.574;11.170;2023-12-07T09:07:58;3.10;99.90
13409;DHT22;6775;49.574;11.170;2023-12-07T09:10:26;3.00;99.90
13409;DHT22;6775;49.574;11.170;2023-12-07T09:12:55;2.90;99.90
13409;DHT22;6775;49.574;11.170;2023-12-07T09:15:23;3.00;99.90
13409;DHT22;6775;49.574;11.170;2023-12-07T09:17:52;3.10;99.90
13409;DHT22;6775;49.574;11.170;2023-12-07T09:20:20;3.10;99.90
13409;DHT22;6775;49.574;11.170;2023-12-07T09:22:49;3.10;99.90
13409;DHT22;6775;49.574;11.170;2023-12-07T09:25:18;3.10;99.90
13409;DHT22;6775;49.574;11.170;2023-12-07T09:27:46;3.00;99.90
13409;DHT22;6775;49.574;11.170;2023-12-07T09:30:15;3.00;99.90
13409;DHT22;6775;49.574;11.170;2023-12-07T09:32:43;3.00;99.90
13409;DHT22;6775;49.574;11.170;2023-12-07T09:35:12;3.10;99.90
13409;DHT22;6775;49.574;11.170;2023-12-07T09:37:42;3.20;99.90
13409;DHT22;6775;49.574;11.170;2023-12-07T09:40:16;3.20;99.90
13409;DHT22;6775;49.574;11.170;2023-12-07T09:42:47;3.30;99.90
13409;DHT22;6775;49.574;11.170;2023-12-07T09:45:17;3.30;99.90
13409;DHT22;6775;49.574;11.170;2023-12-07T09:47:47;3.30;99.90
13409;DHT22;6775;49.574;11.170;2023-12-07T09:50:18;3.30;99.90
13409;DHT22;6775;49.574;11.170;2023-12-07T09:52:49;3.30;99.90
13409;DHT22;6775;49.574;11.170;2023-12-07T09:55:35;3.30;99.90
13409;DHT22;6775;49.574;11.170;2023-12-07T09:58:05;3.40;99.90
13409;DHT22;6775;49.574;11.170;2023-12-07T10:00:35;3.40;99.90
13409;DHT22;6775;49.574;11.170;2023-12-07T10:03:05;3.40;99.90
13409;DHT22;6775;49.574;11.170;2023-12-07T10:05:53;3.40;99.90
13409;DHT22;6775;49.574;11.170;2023-12-07T10:08:27;3.50;99.90
13409;DHT22;6775;49.574;11.170;2023-12-07T10:11:05;3.50;99.90
13409;DHT22;6775;49.574;11.170;2023-12-07T10:13:35;3.60;99.90
13409;DHT22;6775;49.574;11.170;2023-12-07T10:16:09;3.60;99.90
13409;DHT22;6775;49.574;11.170;2023-12-07T10:18:39;3.50;99.90
13409;DHT22;6775;49.574;11.170;2023-12-07T10:21:11;3.50;99.90
13409;DHT22;6775;49.574;11.170;2023-12-07T10:23:42;3.50;99.90
13409;DHT22;6775;49.574;11.170;2023-12-07T10:26:16;3.60;99.90
13409;DHT22;6775;49.574;11.170;2023-12-07T10:28:49;3.60;99.90
13409;DHT22;6775;49.574;11.170;2023-12-07T10:31:22;3.70;99.90
13409;DHT22;6775;49.574;11.170;2023-12-07T10:33:51;3.80;99.90
13409;DHT22;6775;49.574;11.170;2023-12-07T10:36:20;3.80;99.90
13409;DHT22;6775;49.574;11.170;2023-12-07T10:38:48;3.70;99.90
13409;DHT22;6775;49.574;11.170;2023-12-07T10:41:20;3.60;99.90
13409;DHT22;6775;49.574;11.170;2023-12-07T10:43:52;3.50;99.90
13409;DHT22;6775;49.574;11.170;2023-12-07T10:46:22;3.50;99.90
13409;DHT22;6775;49.574;11.170;2023-12-07T10:48:55;3.50;99.90
13409;DHT22;6775;49.574;11.170;2023-12-07T10:51:33;3.60;99.90
13409;DHT22;6775;49.574;11.170;2023-12-07T10:54:07;3.60;99.90
13409;DHT22;6775;49.574;11.170;2023-12-07T10:56:43;3.60;99.90
13409;DHT22;6775;49.574;11.170;2023-12-07T10:59:13;3.70;99.90
13409;DHT22;6775;49.574;11.170;2023-12-07T11:01:57;3.60;99.90
13409;DHT22;6775;49.574;11.170;2023-12-07T11:04:27;3.60;99.90
13409;DHT22;6775;49.574;11.170;2023-12-07T11:07:10;3.60;99.90
13409;DHT22;6775;49.574;11.170;2023-12-07T11:09:45;3.50;99.90
13409;DHT22;6775;49.574;11.170;2023-12-07T11:12:24;3.50;99.90
13409;DHT22;6775;49.574;11.170;2023-12-07T11:15:01;3.50;99.90
13409;DHT22;6775;49.574;11.170;2023-12-07T11:17:47;3.50;99.90
13409;DHT22;6775;49.574;11.170;2023-12-07T11:20:19;3.50;99.90
13409;DHT22;6775;49.574;11.170;2023-12-07T11:22:49;3.50;99.90
13409;DHT22;6775;49.574;11.170;2023-12-07T11:25:19;3.50;99.90
13409;DHT22;6775;49.574;11.170;2023-12-07T11:28:00;3.60;99.90
13409;DHT22;6775;49.574;11.170;2023-12-07T11:30:33;3.60;99.90
13409;DHT22;6775;49.574;11.170;2023-12-07T11:33:04;3.70;99.90
13409;DHT22;6775;49.574;11.170;2023-12-07T11:35:34;3.70;99.90
13409;DHT22;6775;49.574;11.170;2023-12-07T11:38:31;3.60;99.90
13409;DHT22;6775;49.574;11.170;2023-12-07T11:41:00;3.60;99.90
13409;DHT22;6775;49.574;11.170;2023-12-07T11:43:37;3.60;99.90
13409;DHT22;6775;49.574;11.170;2023-12-07T11:46:11;3.60;99.90
13409;DHT22;6775;49.574;11.170;2023-12-07T11:48:46;3.70;99.90
13409;DHT22;6775;49.574;11.170;2023-12-07T11:51:17;3.70;99.90
13409;DHT22;6775;49.574;11.170;2023-12-07T11:53:45;3.70;99.90
13409;DHT22;6775;49.574;11.170;2023-12-07T11:56:15;3.70;99.90
13409;DHT22;6775;49.574;11.170;2023-12-07T11:58:49;3.80;99.90
13409;DHT22;6775;49.574;11.170;2023-12-07T12:01:19;3.80;99.90
13409;DHT22;6775;49.574;11.170;2023-12-07T12:03:47;3.90;99.90
13409;DHT22;6775;49.574;11.170;2023-12-07T12:06:15;3.90;99.90
13409;DHT22;6775;49.574;11.170;2023-12-07T12:08:44;3.90;99.90
13409;DHT22;6775;49.574;11.170;2023-12-07T12:11:13;3.90;99.90
13409;DHT22;6775;49.574;11.170;2023-12-07T12:13:41;3.90;99.90
13409;DHT22;6775;49.574;11.170;2023-12-07T12:16:11;3.90;99.90
13409;DHT22;6775;49.574;11.170;2023-12-07T12:18:40;4.00;99.90
13409;DHT22;6775;49.574;11.170;2023-12-07T12:21:08;4.00;99.90
13409;DHT22;6775;49.574;11.170;2023-12-07T12:23:37;4.00;99.90
13409;DHT22;6775;49.574;11.170;2023-12-07T12:26:07;4.10;99.90
13409;DHT22;6775;49.574;11.170;2023-12-07T12:28:37;4.10;99.90
13409;DHT22;6775;49.574;11.170;2023-12-07T12:31:12;3.90;99.90
13409;DHT22;6775;49.574;11.170;2023-12-07T12:33:40;3.90;99.90
13409;DHT22;6775;49.574;11.170;2023-12-07T12:36:08;4.00;99.90
13409;DHT22;6775;49.574;11.170;2023-12-07T12:38:38;4.10;99.90
13409;DHT22;6775;49.574;11.170;2023-12-07T12:41:10;4.10;99.90
13409;DHT22;6775;49.574;11.170;2023-12-07T12:43:40;4.40;99.90
13409;DHT22;6775;49.574;11.170;2023-12-07T12:46:10;4.80;99.90
13409;DHT22;6775;49.574;11.170;2023-12-07T12:48:53;5.10;99.90
13409;DHT22;6775;49.574;11.170;2023-12-07T12:51:24;5.00;99.90
13409;DHT22;6775;49.574;11.170;2023-12-07T12:53:54;5.00;99.90
13409;DHT22;6775;49.574;11.170;2023-12-07T12:56:26;4.90;99.90
13409;DHT22;6775;49.574;11.170;2023-12-07T12:58:55;4.80;99.90
13409;DHT22;6775;49.574;11.170;2023-12-07T13:01:32;4.80;99.90
13409;DHT22;6775;49.574;11.170;2023-12-07T13:04:01;4.80;99.90
13409;DHT22;6775;49.574;11.170;2023-12-07T13:06:29;5.00;99.90
13409;DHT22;6775;49.574;11.170;2023-12-07T13:08:57;5.20;99.90
13409;DHT22;6775;49.574;11.170;2023-12-07T13:11:26;5.40;99.90
13409;DHT22;6775;49.574;11.170;2023-12-07T13:13:54;5.40;99.90
13409;DHT22;6775;49.574;11.170;2023-12-07T13:16:22;5.40;99.90
13409;DHT22;6775;49.574;11.170;2023-12-07T13:18:52;5.30;99.90
13409;DHT22;6775;49.574;11.170;2023-12-07T13:21:20;5.90;99.90
13409;DHT22;6775;49.574;11.170;2023-12-07T13:23:49;5.00;99.90
13409;DHT22;6775;49.574;11.170;2023-12-07T13:26:19;4.90;99.90
13409;DHT22;6775;49.574;11.170;2023-12-07T13:28:47;4.70;99.90
13409;DHT22;6775;49.574;11.170;2023-12-07T13:31:15;4.50;99.90
13409;DHT22;6775;49.574;11.170;2023-12-07T13:33:44;4.30;99.90
13409;DHT22;6775;49.574;11.170;2023-12-07T13:36:23;4.20;99.90
13409;DHT22;6775;49.574;11.170;2023-12-07T13:38:54;4.20;99.90
13409;DHT22;6775;49.574;11.170;2023-12-07T13:41:22;4.10;99.90
13409;DHT22;6775;49.574;11.170;2023-12-07T13:43:50;4.10;99.90
13409;DHT22;6775;49.574;11.170;2023-12-07T13:46:18;4.00;99.90
13409;DHT22;6775;49.574;11.170;2023-12-07T13:48:47;4.00;99.90
13409;DHT22;6775;49.574;11.170;2023-12-07T13:51:16;4.00;99.90
13409;DHT22;6775;49.574;11.170;2023-12-07T13:53:46;4.00;99.90
13409;DHT22;6775;49.574;11.170;2023-12-07T13:56:15;3.90;99.90
13409;DHT22;6775;49.574;11.170;2023-12-07T13:58:43;3.70;99.90
13409;DHT22;6775;49.574;11.170;2023-12-07T14:01:11;3.60;99.90
13409;DHT22;6775;49.574;11.170;2023-12-07T14:03:40;3.50;99.90
13409;DHT22;6775;49.574;11.170;2023-12-07T14:06:08;3.50;99.90
13409;DHT22;6775;49.574;11.170;2023-12-07T14:08:48;3.30;99.90
13409;DHT22;6775;49.574;11.170;2023-12-07T14:11:17;3.20;99.90
13409;DHT22;6775;49.574;11.170;2023-12-07T14:13:45;3.10;99.90
13409;DHT22;6775;49.574;11.170;2023-12-07T14:16:15;3.00;99.90
13409;DHT22;6775;49.574;11.170;2023-12-07T14:18:57;2.90;99.90
13409;DHT22;6775;49.574;11.170;2023-12-07T14:21:41;2.80;99.90
13409;DHT22;6775;49.574;11.170;2023-12-07T14:24:23;2.80;99.90
13409;DHT22;6775;49.574;11.170;2023-12-07T14:26:52;2.70;99.90
13409;DHT22;6775;49.574;11.170;2023-12-07T14:29:21;2.60;99.90
13409;DHT22;6775;49.574;11.170;2023-12-07T14:31:53;2.60;99.90
13409;DHT22;6775;49.574;11.170;2023-12-07T14:34:22;2.50;99.90
13409;DHT22;6775;49.574;11.170;2023-12-07T14:37:01;2.40;99.90
13409;DHT22;6775;49.574;11.170;2023-12-07T14:39:34;2.30;99.90
13409;DHT22;6775;49.574;11.170;2023-12-07T14:42:03;2.20;99.90
13409;DHT22;6775;49.574;11.170;2023-12-07T14:44:32;2.20;99.90
13409;DHT22;6775;49.574;11.170;2023-12-07T14:47:01;2.10;99.90
13409;DHT22;6775;49.574;11.170;2023-12-07T14:49:29;2.10;99.90
13409;DHT22;6775;49.574;11.170;2023-12-07T14:51:57;2.00;99.90
13409;DHT22;6775;49.574;11.170;2023-12-07T14:54:27;2.10;99.90
13409;DHT22;6775;49.574;11.170;2023-12-07T14:56:58;2.00;99.90
13409;DHT22;6775;49.574;11.170;2023-12-07T14:59:28;2.00;99.90
13409;DHT22;6775;49.574;11.170;2023-12-07T15:01:56;2.00;99.90
13409;DHT22;6775;49.574;11.170;2023-12-07T15:04:25;1.90;99.90
13409;DHT22;6775;49.574;11.170;2023-12-07T15:07:00;1.80;99.90
13409;DHT22;6775;49.574;11.170;2023-12-07T15:09:29;1.70;99.90
13409;DHT22;6775;49.574;11.170;2023-12-07T15:11:59;1.70;99.90
13409;DHT22;6775;49.574;11.170;2023-12-07T15:14:27;1.70;99.90
13409;DHT22;6775;49.574;11.170;2023-12-07T15:17:04;1.70;99.90
13409;DHT22;6775;49.574;11.170;2023-12-07T15:19:34;1.70;99.90
13409;DHT22;6775;49.574;11.170;2023-12-07T15:22:05;1.70;99.90
13409;DHT22;6775;49.574;11.170;2023-12-07T15:24:33;1.70;99.90
13409;DHT22;6775;49.574;11.170;2023-12-07T15:27:04;1.70;99.90
13409;DHT22;6775;49.574;11.170;2023-12-07T15:29:34;1.60;99.90
13409;DHT22;6775;49.574;11.170;2023-12-07T15:32:03;1.50;99.90
13409;DHT22;6775;49.574;11.170;2023-12-07T15:34:32;1.50;99.90
13409;DHT22;6775;49.574;11.170;2023-12-07T15:37:07;1.40;99.90
13409;DHT22;6775;49.574;11.170;2023-12-07T15:39:37;1.40;99.90
13409;DHT22;6775;49.574;11.170;2023-12-07T15:42:07;1.40;99.90
13409;DHT22;6775;49.574;11.170;2023-12-07T15:44:37;1.30;99.90
13409;DHT22;6775;49.574;11.170;2023-12-07T15:47:06;1.20;99.90
13409;DHT22;6775;49.574;11.170;2023-12-07T15:49:34;1.20;99.90
13409;DHT22;6775;49.574;11.170;2023-12-07T15:52:03;1.20;99.90
13409;DHT22;6775;49.574;11.170;2023-12-07T15:54:32;1.20;99.90
13409;DHT22;6775;49.574;11.170;2023-12-07T15:57:08;1.30;99.90
13409;DHT22;6775;49.574;11.170;2023-12-07T15:59:38;1.10;99.90
13409;DHT22;6775;49.574;11.170;2023-12-07T16:02:08;1.00;99.90